Lake Hughes, California
Current Conditions -  °F | °C
As of 7:56 AM on Saturday 25 Oct 2014 (Local Time) from KWJF Reporting Station
Few Clouds Few Clouds  
Wind Chill: 57°   Ceiling: Unl
Heat Index: 57°   Visibility: 10mi
Dew Point: 28°   Wind: 0mph
Humidity: 33%   Direction: NA
Pressure: 30.08"   Gusts: NA
Location:  34.68°N, 118.45°W
Report Text: KWJF 251456Z 00000KT 10SM FEW070 14/M02 A3008 RMK AO2 SLP178 T01391022 51013
Loading
Personal Weather Stations






























Interactive Weather Map
Tropical Storm Tracking
New forecast layout! Learn more

10-Day Weather Forecast

Advertisements
Track Severe Weather on mobile